METAR AND TAF INFORMATION
METAR FOR UCFM
ADDS - METARS form results

(0045 UTC 18 November 2019)
Data provider http://aviationweather.gov/metar/data/
 
METAR text: UCFM 180030Z 14003MPS 1000 0900W R08/P1500 BCFG FU NSC M02/M03 Q1028 R08/0///95 NOSIG
Conditions at: UCFM (MANAS , KG) observed 0030 UTC 18 November 2019
Temperature: -2.0°C (28°F)
Dewpoint: -3.0°C (27°F) [RH = 93%]
Pressure (altimeter): 30.35 inches Hg (1028.0 mb)
Winds: from the SE (140 degrees) at 7 MPH (6 knots; 3.1 m/s)
Visibility: 0.62 miles (1.00 km)
Ceiling: at least 12,000 feet AGL
Clouds: sky clear below 12,000 feet AGL
Weather: BCFG FU  (patches of fog, smoke)

METAR text: UCFM 180000Z 14002MPS 0550 0250E R08/1300N FZFG FU NSC M04/M04 Q1028 R08/0///95 NOSIG
Conditions at: UCFM (MANAS , KG) observed 0000 UTC 18 November 2019
Temperature: -4.0°C (25°F)
Dewpoint: -4.0°C (25°F) [RH = 100%]
Pressure (altimeter): 30.35 inches Hg (1028.0 mb)
Winds: from the SE (140 degrees) at 5 MPH (4 knots; 2.1 m/s)
Visibility: 0.34 miles (0.55 km)
Ceiling: at least 12,000 feet AGL
Clouds: sky clear below 12,000 feet AGL
Weather: FZFG FU  (freezing fog, smoke)

Forecast for: UCFM (MANAS , KG)
Text: TAF UCFM 172250Z 1800/1824 14003G08MPS 0800 FZFG FU SCT010 BKN050CB
Forecast period: 0000 to 0600 UTC 18 November 2019
Forecast type: FROM: standard forecast or significant change
Winds: from the SE (140 degrees) at 7 MPH (6 knots; 3.1 m/s)
gusting to 18 MPH (16 knots; 8.2 m/s)
Visibility: 0.50 miles (0.80 km)
Ceiling: 5000 feet AGL
Clouds: scattered clouds at 1000 feet AGL
broken clouds at 5000 feet AGL
Weather: FZFG FU  (freezing fog, smoke)
Text: TEMPO 1800/1806 0300 FZFG BKN002
Forecast period: 0000 to 0600 UTC 18 November 2019
Forecast type: TEMPORARY: The following changes expected for less than half the time period
Visibility: 0.19 miles (0.31 km)
Ceiling: 200 feet AGL
Clouds: broken clouds at 200 feet AGL
Weather: FZFG  (freezing fog)
Text: FM180600 32003G08MPS 6000 BKN030CB OVC100
Forecast period: 0600 to 1200 UTC 18 November 2019
Forecast type: FROM: standard forecast or significant change
Winds: from the NW (320 degrees) at 7 MPH (6 knots; 3.1 m/s)
gusting to 18 MPH (16 knots; 8.2 m/s)
Visibility: 4 miles (6 km)
Ceiling: 3000 feet AGL
Clouds: broken clouds at 3000 feet AGL
overcast cloud deck at 10000 feet AGL
Weather: no significant weather forecast for this period
Text: BECMG 1812/1814 12003G08MPS 1500 BR FU
Forecast period: 1200 UTC 18 November 2019 to 0000 UTC 19 November 2019
Forecast type: BECOMING: Conditions expected to become as follows by 1400 UTC 18 November 2019
Winds: from the ESE (120 degrees) at 7 MPH (6 knots; 3.1 m/s)
gusting to 18 MPH (16 knots; 8.2 m/s)
Visibility: 0.93 miles (1.50 km)
Ceiling: 3000 feet AGL
Clouds: broken clouds at 3000 feet AGL
overcast cloud deck at 10000 feet AGL
Weather: BR FU  (mist, smoke)

 AIRPORT MAP

 RUNWAY INFORMATION

 AIRPORT FREQUENCIES

 AIRPORT NEAR NAVIGATION AIDS



2018 Air Astana Virtual Airline